sensor_id;sensor_type;location;lat;lon;timestamp;temperature;humidity
4795;DHT22;2411;47.060;15.064;2023-03-01T00:01:06;1.10;1.00
4795;DHT22;2411;47.060;15.064;2023-03-01T00:03:34;1.00;1.00
4795;DHT22;2411;47.060;15.064;2023-03-01T00:06:03;1.10;1.00
4795;DHT22;2411;47.060;15.064;2023-03-01T00:08:30;1.10;1.00
4795;DHT22;2411;47.060;15.064;2023-03-01T00:11:05;1.00;1.00
4795;DHT22;2411;47.060;15.064;2023-03-01T00:13:33;1.10;1.00
4795;DHT22;2411;47.060;15.064;2023-03-01T00:16:06;1.10;1.00
4795;DHT22;2411;47.060;15.064;2023-03-01T00:18:34;1.10;1.00
4795;DHT22;2411;47.060;15.064;2023-03-01T00:21:02;1.20;1.00
4795;DHT22;2411;47.060;15.064;2023-03-01T00:23:29;1.20;1.00
4795;DHT22;2411;47.060;15.064;2023-03-01T00:25:56;1.20;1.00
4795;DHT22;2411;47.060;15.064;2023-03-01T00:28:23;1.20;1.00
4795;DHT22;2411;47.060;15.064;2023-03-01T00:30:51;1.30;1.00
4795;DHT22;2411;47.060;15.064;2023-03-01T00:33:18;1.20;1.00
4795;DHT22;2411;47.060;15.064;2023-03-01T00:35:45;1.20;1.00
4795;DHT22;2411;47.060;15.064;2023-03-01T00:38:12;1.20;1.00
4795;DHT22;2411;47.060;15.064;2023-03-01T00:40:40;1.20;1.00
4795;DHT22;2411;47.060;15.064;2023-03-01T00:43:07;1.20;1.00
4795;DHT22;2411;47.060;15.064;2023-03-01T00:45:34;1.20;1.00
4795;DHT22;2411;47.060;15.064;2023-03-01T00:48:03;1.20;1.00
4795;DHT22;2411;47.060;15.064;2023-03-01T00:50:30;1.20;1.00
4795;DHT22;2411;47.060;15.064;2023-03-01T00:52:57;1.20;1.00
4795;DHT22;2411;47.060;15.064;2023-03-01T00:55:25;1.20;1.00
4795;DHT22;2411;47.060;15.064;2023-03-01T00:57:52;1.20;1.00
4795;DHT22;2411;47.060;15.064;2023-03-01T01:00:19;1.20;1.00
4795;DHT22;2411;47.060;15.064;2023-03-01T01:02:47;1.20;1.00
4795;DHT22;2411;47.060;15.064;2023-03-01T01:05:14;1.20;1.00
4795;DHT22;2411;47.060;15.064;2023-03-01T01:07:48;1.10;1.00
4795;DHT22;2411;47.060;15.064;2023-03-01T01:10:15;1.00;1.00
4795;DHT22;2411;47.060;15.064;2023-03-01T01:12:46;1.00;1.00
4795;DHT22;2411;47.060;15.064;2023-03-01T01:15:14;1.10;1.00
4795;DHT22;2411;47.060;15.064;2023-03-01T01:17:43;1.10;1.00
4795;DHT22;2411;47.060;15.064;2023-03-01T01:20:11;1.10;1.00
4795;DHT22;2411;47.060;15.064;2023-03-01T01:22:38;1.00;1.00
4795;DHT22;2411;47.060;15.064;2023-03-01T01:25:05;1.10;1.00
4795;DHT22;2411;47.060;15.064;2023-03-01T01:27:33;1.10;1.00
4795;DHT22;2411;47.060;15.064;2023-03-01T01:30:00;1.00;1.00
4795;DHT22;2411;47.060;15.064;2023-03-01T01:32:27;1.10;1.00
4795;DHT22;2411;47.060;15.064;2023-03-01T01:34:54;1.10;1.00
4795;DHT22;2411;47.060;15.064;2023-03-01T01:37:22;1.20;1.00
4795;DHT22;2411;47.060;15.064;2023-03-01T01:39:49;1.20;1.00
4795;DHT22;2411;47.060;15.064;2023-03-01T01:42:17;1.20;1.00
4795;DHT22;2411;47.060;15.064;2023-03-01T01:44:46;1.20;1.00
4795;DHT22;2411;47.060;15.064;2023-03-01T01:47:20;1.20;1.00
4795;DHT22;2411;47.060;15.064;2023-03-01T01:49:56;1.10;1.00
4795;DHT22;2411;47.060;15.064;2023-03-01T01:52:27;1.10;1.00
4795;DHT22;2411;47.060;15.064;2023-03-01T01:55:00;1.10;1.00
4795;DHT22;2411;47.060;15.064;2023-03-01T01:57:43;1.10;1.00
4795;DHT22;2411;47.060;15.064;2023-03-01T02:00:21;1.10;1.00
4795;DHT22;2411;47.060;15.064;2023-03-01T02:02:51;1.10;1.00
4795;DHT22;2411;47.060;15.064;2023-03-01T02:07:56;1.10;1.00
4795;DHT22;2411;47.060;15.064;2023-03-01T02:10:25;1.10;1.00
4795;DHT22;2411;47.060;15.064;2023-03-01T02:12:53;1.10;1.00
4795;DHT22;2411;47.060;15.064;2023-03-01T02:15:21;1.10;1.00
4795;DHT22;2411;47.060;15.064;2023-03-01T02:17:49;1.10;1.00
4795;DHT22;2411;47.060;15.064;2023-03-01T02:22:45;1.10;1.00
4795;DHT22;2411;47.060;15.064;2023-03-01T02:30:31;1.10;1.00
4795;DHT22;2411;47.060;15.064;2023-03-01T02:33:00;1.10;1.00
4795;DHT22;2411;47.060;15.064;2023-03-01T02:35:38;1.00;1.00
4795;DHT22;2411;47.060;15.064;2023-03-01T02:38:08;1.00;1.00
4795;DHT22;2411;47.060;15.064;2023-03-01T02:40:36;1.00;1.00
4795;DHT22;2411;47.060;15.064;2023-03-01T02:43:07;0.90;1.00
4795;DHT22;2411;47.060;15.064;2023-03-01T02:45:37;0.90;1.00
4795;DHT22;2411;47.060;15.064;2023-03-01T02:48:04;0.70;1.00
4795;DHT22;2411;47.060;15.064;2023-03-01T02:50:46;0.80;1.00
4795;DHT22;2411;47.060;15.064;2023-03-01T02:56:15;0.80;1.00
4795;DHT22;2411;47.060;15.064;2023-03-01T02:58:43;0.80;1.00
4795;DHT22;2411;47.060;15.064;2023-03-01T03:01:20;0.80;1.00
4795;DHT22;2411;47.060;15.064;2023-03-01T03:03:47;0.70;1.00
4795;DHT22;2411;47.060;15.064;2023-03-01T03:06:14;0.90;1.00
4795;DHT22;2411;47.060;15.064;2023-03-01T03:08:41;1.00;1.00
4795;DHT22;2411;47.060;15.064;2023-03-01T03:11:09;1.00;1.00
4795;DHT22;2411;47.060;15.064;2023-03-01T03:13:36;1.00;1.00
4795;DHT22;2411;47.060;15.064;2023-03-01T03:16:03;1.10;1.00
4795;DHT22;2411;47.060;15.064;2023-03-01T03:18:31;1.00;1.00
4795;DHT22;2411;47.060;15.064;2023-03-01T03:20:58;1.00;1.00
4795;DHT22;2411;47.060;15.064;2023-03-01T03:23:25;0.90;1.00
4795;DHT22;2411;47.060;15.064;2023-03-01T03:25:53;0.90;1.00
4795;DHT22;2411;47.060;15.064;2023-03-01T03:28:20;1.00;1.00
4795;DHT22;2411;47.060;15.064;2023-03-01T03:30:47;1.10;1.00
4795;DHT22;2411;47.060;15.064;2023-03-01T03:33:14;1.00;1.00
4795;DHT22;2411;47.060;15.064;2023-03-01T03:35:44;1.00;1.00
4795;DHT22;2411;47.060;15.064;2023-03-01T03:38:13;1.00;1.00
4795;DHT22;2411;47.060;15.064;2023-03-01T03:40:46;0.90;1.00
4795;DHT22;2411;47.060;15.064;2023-03-01T03:43:16;0.80;1.00
4795;DHT22;2411;47.060;15.064;2023-03-01T03:45:45;0.80;1.00
4795;DHT22;2411;47.060;15.064;2023-03-01T03:48:13;0.80;1.00
4795;DHT22;2411;47.060;15.064;2023-03-01T03:50:41;0.80;1.00
4795;DHT22;2411;47.060;15.064;2023-03-01T03:53:13;0.70;1.00
4795;DHT22;2411;47.060;15.064;2023-03-01T03:55:41;0.60;1.00
4795;DHT22;2411;47.060;15.064;2023-03-01T03:58:09;0.70;1.00
4795;DHT22;2411;47.060;15.064;2023-03-01T04:00:40;0.70;1.00
4795;DHT22;2411;47.060;15.064;2023-03-01T04:03:08;0.70;1.00
4795;DHT22;2411;47.060;15.064;2023-03-01T04:05:37;0.70;1.00
4795;DHT22;2411;47.060;15.064;2023-03-01T04:08:05;0.80;1.00
4795;DHT22;2411;47.060;15.064;2023-03-01T04:10:45;0.90;1.00
4795;DHT22;2411;47.060;15.064;2023-03-01T04:13:15;0.90;1.00
4795;DHT22;2411;47.060;15.064;2023-03-01T04:15:43;0.90;1.00
4795;DHT22;2411;47.060;15.064;2023-03-01T04:18:13;0.90;1.00
4795;DHT22;2411;47.060;15.064;2023-03-01T04:20:41;1.00;1.00
4795;DHT22;2411;47.060;15.064;2023-03-01T04:23:15;1.00;1.00
4795;DHT22;2411;47.060;15.064;2023-03-01T04:25:51;1.00;1.00
4795;DHT22;2411;47.060;15.064;2023-03-01T04:28:22;1.00;1.00
4795;DHT22;2411;47.060;15.064;2023-03-01T04:30:55;1.00;1.00
4795;DHT22;2411;47.060;15.064;2023-03-01T04:33:24;0.90;1.00
4795;DHT22;2411;47.060;15.064;2023-03-01T04:35:52;0.90;1.00
4795;DHT22;2411;47.060;15.064;2023-03-01T04:38:20;0.90;1.00
4795;DHT22;2411;47.060;15.064;2023-03-01T04:40:48;0.90;1.00
4795;DHT22;2411;47.060;15.064;2023-03-01T04:43:15;0.90;1.00
4795;DHT22;2411;47.060;15.064;2023-03-01T04:45:43;0.90;1.00
4795;DHT22;2411;47.060;15.064;2023-03-01T04:48:10;0.90;1.00
4795;DHT22;2411;47.060;15.064;2023-03-01T04:50:38;0.90;1.00
4795;DHT22;2411;47.060;15.064;2023-03-01T04:53:05;1.00;1.00
4795;DHT22;2411;47.060;15.064;2023-03-01T04:55:33;0.90;1.00
4795;DHT22;2411;47.060;15.064;2023-03-01T04:58:00;1.00;1.00
4795;DHT22;2411;47.060;15.064;2023-03-01T05:00:28;0.90;1.00
4795;DHT22;2411;47.060;15.064;2023-03-01T05:02:57;0.90;1.00
4795;DHT22;2411;47.060;15.064;2023-03-01T05:05:35;0.70;1.00
4795;DHT22;2411;47.060;15.064;2023-03-01T05:08:05;0.80;1.00
4795;DHT22;2411;47.060;15.064;2023-03-01T05:10:35;0.80;1.00
4795;DHT22;2411;47.060;15.064;2023-03-01T05:13:03;0.70;1.00
4795;DHT22;2411;47.060;15.064;2023-03-01T05:15:31;0.70;1.00
4795;DHT22;2411;47.060;15.064;2023-03-01T05:18:00;0.70;1.00
4795;DHT22;2411;47.060;15.064;2023-03-01T05:20:29;0.70;1.00
4795;DHT22;2411;47.060;15.064;2023-03-01T05:22:59;0.60;1.00
4795;DHT22;2411;47.060;15.064;2023-03-01T05:25:27;0.70;1.00
4795;DHT22;2411;47.060;15.064;2023-03-01T05:28:01;0.60;1.00
4795;DHT22;2411;47.060;15.064;2023-03-01T05:30:33;0.80;1.00
4795;DHT22;2411;47.060;15.064;2023-03-01T05:33:01;2.50;1.00
4795;DHT22;2411;47.060;15.064;2023-03-01T05:35:28;2.20;1.00
4795;DHT22;2411;47.060;15.064;2023-03-01T05:37:56;1.20;1.00
4795;DHT22;2411;47.060;15.064;2023-03-01T05:40:24;0.90;1.00
4795;DHT22;2411;47.060;15.064;2023-03-01T05:42:56;0.70;1.00
4795;DHT22;2411;47.060;15.064;2023-03-01T05:45:25;0.60;1.00
4795;DHT22;2411;47.060;15.064;2023-03-01T05:47:54;0.60;1.00
4795;DHT22;2411;47.060;15.064;2023-03-01T05:50:27;0.60;1.00
4795;DHT22;2411;47.060;15.064;2023-03-01T05:53:20;0.60;1.00
4795;DHT22;2411;47.060;15.064;2023-03-01T05:55:48;0.50;1.00
4795;DHT22;2411;47.060;15.064;2023-03-01T05:58:19;0.50;1.00
4795;DHT22;2411;47.060;15.064;2023-03-01T06:00:47;0.50;1.00
4795;DHT22;2411;47.060;15.064;2023-03-01T06:03:16;0.50;1.00
4795;DHT22;2411;47.060;15.064;2023-03-01T06:05:44;0.60;1.00
4795;DHT22;2411;47.060;15.064;2023-03-01T06:08:12;0.60;1.00
4795;DHT22;2411;47.060;15.064;2023-03-01T06:10:40;0.70;1.00
4795;DHT22;2411;47.060;15.064;2023-03-01T06:13:07;0.70;1.00
4795;DHT22;2411;47.060;15.064;2023-03-01T06:15:35;0.70;1.00
4795;DHT22;2411;47.060;15.064;2023-03-01T06:18:02;0.80;1.00
4795;DHT22;2411;47.060;15.064;2023-03-01T06:20:29;0.80;1.00
4795;DHT22;2411;47.060;15.064;2023-03-01T06:22:57;0.90;1.00
4795;DHT22;2411;47.060;15.064;2023-03-01T06:25:26;0.90;1.00
4795;DHT22;2411;47.060;15.064;2023-03-01T06:27:54;0.90;1.00
4795;DHT22;2411;47.060;15.064;2023-03-01T06:30:23;0.80;1.00
4795;DHT22;2411;47.060;15.064;2023-03-01T06:32:51;0.90;1.00
4795;DHT22;2411;47.060;15.064;2023-03-01T06:35:19;0.80;1.00
4795;DHT22;2411;47.060;15.064;2023-03-01T06:37:48;0.80;1.00
4795;DHT22;2411;47.060;15.064;2023-03-01T06:40:15;0.80;1.00
4795;DHT22;2411;47.060;15.064;2023-03-01T06:42:47;0.80;1.00
4795;DHT22;2411;47.060;15.064;2023-03-01T06:45:19;0.80;1.00
4795;DHT22;2411;47.060;15.064;2023-03-01T06:47:47;0.80;1.00
4795;DHT22;2411;47.060;15.064;2023-03-01T06:50:15;0.80;1.00
4795;DHT22;2411;47.060;15.064;2023-03-01T06:52:43;0.80;1.00
4795;DHT22;2411;47.060;15.064;2023-03-01T06:55:12;0.80;1.00
4795;DHT22;2411;47.060;15.064;2023-03-01T06:57:39;0.80;1.00
4795;DHT22;2411;47.060;15.064;2023-03-01T07:00:07;0.80;1.00
4795;DHT22;2411;47.060;15.064;2023-03-01T07:02:35;0.80;1.00
4795;DHT22;2411;47.060;15.064;2023-03-01T07:05:02;0.80;1.00
4795;DHT22;2411;47.060;15.064;2023-03-01T07:07:30;0.70;1.00
4795;DHT22;2411;47.060;15.064;2023-03-01T07:09:57;0.70;1.00
4795;DHT22;2411;47.060;15.064;2023-03-01T07:12:25;0.80;1.00
4795;DHT22;2411;47.060;15.064;2023-03-01T07:14:52;0.70;1.00
4795;DHT22;2411;47.060;15.064;2023-03-01T07:17:19;0.70;1.00
4795;DHT22;2411;47.060;15.064;2023-03-01T07:19:46;0.80;1.00
4795;DHT22;2411;47.060;15.064;2023-03-01T07:22:14;0.90;1.00
4795;DHT22;2411;47.060;15.064;2023-03-01T07:24:42;0.80;1.00
4795;DHT22;2411;47.060;15.064;2023-03-01T07:27:10;0.90;1.00
4795;DHT22;2411;47.060;15.064;2023-03-01T07:29:37;1.00;1.00
4795;DHT22;2411;47.060;15.064;2023-03-01T07:32:05;1.10;1.00
4795;DHT22;2411;47.060;15.064;2023-03-01T07:34:33;1.10;1.00
4795;DHT22;2411;47.060;15.064;2023-03-01T07:37:00;1.10;1.00
4795;DHT22;2411;47.060;15.064;2023-03-01T07:39:27;1.20;1.00
4795;DHT22;2411;47.060;15.064;2023-03-01T07:41:55;1.20;1.00
4795;DHT22;2411;47.060;15.064;2023-03-01T07:44:22;1.30;1.00
4795;DHT22;2411;47.060;15.064;2023-03-01T07:46:49;1.40;1.00
4795;DHT22;2411;47.060;15.064;2023-03-01T07:49:16;1.30;1.00
4795;DHT22;2411;47.060;15.064;2023-03-01T07:51:44;1.40;1.00
4795;DHT22;2411;47.060;15.064;2023-03-01T07:54:11;1.40;1.00
4795;DHT22;2411;47.060;15.064;2023-03-01T07:56:38;1.40;1.00
4795;DHT22;2411;47.060;15.064;2023-03-01T07:59:07;1.30;1.00
4795;DHT22;2411;47.060;15.064;2023-03-01T08:01:34;1.40;1.00
4795;DHT22;2411;47.060;15.064;2023-03-01T08:04:02;1.40;1.00
4795;DHT22;2411;47.060;15.064;2023-03-01T08:06:29;1.30;1.00
4795;DHT22;2411;47.060;15.064;2023-03-01T08:08:57;1.40;1.00
4795;DHT22;2411;47.060;15.064;2023-03-01T08:11:25;1.50;1.00
4795;DHT22;2411;47.060;15.064;2023-03-01T08:13:55;1.50;1.00
4795;DHT22;2411;47.060;15.064;2023-03-01T08:16:23;1.60;1.00
4795;DHT22;2411;47.060;15.064;2023-03-01T08:18:51;1.50;1.00
4795;DHT22;2411;47.060;15.064;2023-03-01T08:21:18;1.50;1.00
4795;DHT22;2411;47.060;15.064;2023-03-01T08:23:45;1.60;1.00
4795;DHT22;2411;47.060;15.064;2023-03-01T08:26:16;1.70;1.00
4795;DHT22;2411;47.060;15.064;2023-03-01T08:28:46;1.70;1.00
4795;DHT22;2411;47.060;15.064;2023-03-01T08:31:27;1.80;1.00
4795;DHT22;2411;47.060;15.064;2023-03-01T08:33:58;1.90;1.00
4795;DHT22;2411;47.060;15.064;2023-03-01T08:36:37;2.00;1.00
4795;DHT22;2411;47.060;15.064;2023-03-01T08:39:06;1.90;1.00
4795;DHT22;2411;47.060;15.064;2023-03-01T08:41:34;2.10;1.00
4795;DHT22;2411;47.060;15.064;2023-03-01T08:44:01;2.20;1.00
4795;DHT22;2411;47.060;15.064;2023-03-01T08:46:34;2.20;1.00
4795;DHT22;2411;47.060;15.064;2023-03-01T08:49:21;2.30;1.00
4795;DHT22;2411;47.060;15.064;2023-03-01T08:51:48;2.40;1.00
4795;DHT22;2411;47.060;15.064;2023-03-01T08:54:18;2.50;1.00
4795;DHT22;2411;47.060;15.064;2023-03-01T08:56:45;2.40;1.00
4795;DHT22;2411;47.060;15.064;2023-03-01T08:59:15;2.50;1.00
4795;DHT22;2411;47.060;15.064;2023-03-01T09:01:42;2.60;1.00
4795;DHT22;2411;47.060;15.064;2023-03-01T09:04:12;2.70;1.00
4795;DHT22;2411;47.060;15.064;2023-03-01T09:06:41;2.40;1.00
4795;DHT22;2411;47.060;15.064;2023-03-01T09:09:16;2.50;1.00
4795;DHT22;2411;47.060;15.064;2023-03-01T09:11:45;2.40;1.00
4795;DHT22;2411;47.060;15.064;2023-03-01T09:14:17;2.50;1.00
4795;DHT22;2411;47.060;15.064;2023-03-01T09:16:44;2.50;1.00
4795;DHT22;2411;47.060;15.064;2023-03-01T09:19:12;2.60;1.00
4795;DHT22;2411;47.060;15.064;2023-03-01T09:21:39;2.90;1.00
4795;DHT22;2411;47.060;15.064;2023-03-01T09:24:13;2.80;1.00
4795;DHT22;2411;47.060;15.064;2023-03-01T09:26:41;3.00;1.00
4795;DHT22;2411;47.060;15.064;2023-03-01T09:29:09;3.10;1.00
4795;DHT22;2411;47.060;15.064;2023-03-01T09:31:36;3.20;1.00
4795;DHT22;2411;47.060;15.064;2023-03-01T09:34:04;3.10;1.00
4795;DHT22;2411;47.060;15.064;2023-03-01T09:36:31;3.20;1.00
4795;DHT22;2411;47.060;15.064;2023-03-01T09:39:00;3.30;1.00
4795;DHT22;2411;47.060;15.064;2023-03-01T09:44:47;3.20;1.00
4795;DHT22;2411;47.060;15.064;2023-03-01T09:47:20;3.20;1.00
4795;DHT22;2411;47.060;15.064;2023-03-01T09:52:43;3.40;1.00
4795;DHT22;2411;47.060;15.064;2023-03-01T09:55:16;3.60;1.00
4795;DHT22;2411;47.060;15.064;2023-03-01T09:57:59;3.60;1.00
4795;DHT22;2411;47.060;15.064;2023-03-01T10:03:34;3.40;1.00
4795;DHT22;2411;47.060;15.064;2023-03-01T10:11:24;3.30;1.00
4795;DHT22;2411;47.060;15.064;2023-03-01T10:14:03;3.40;1.00
4795;DHT22;2411;47.060;15.064;2023-03-01T10:17:00;3.50;1.00
4795;DHT22;2411;47.060;15.064;2023-03-01T10:22:00;3.50;1.00
4795;DHT22;2411;47.060;15.064;2023-03-01T10:24:33;3.50;1.00
4795;DHT22;2411;47.060;15.064;2023-03-01T10:27:09;3.60;1.00
4795;DHT22;2411;47.060;15.064;2023-03-01T10:32:21;3.40;1.00
4795;DHT22;2411;47.060;15.064;2023-03-01T10:34:52;3.50;1.00
4795;DHT22;2411;47.060;15.064;2023-03-01T10:37:21;3.50;1.00
4795;DHT22;2411;47.060;15.064;2023-03-01T10:40:05;3.60;1.00
4795;DHT22;2411;47.060;15.064;2023-03-01T10:42:39;3.60;1.00
4795;DHT22;2411;47.060;15.064;2023-03-01T10:45:30;3.70;1.00
4795;DHT22;2411;47.060;15.064;2023-03-01T10:48:18;3.80;1.00
4795;DHT22;2411;47.060;15.064;2023-03-01T10:50:50;3.70;1.00
4795;DHT22;2411;47.060;15.064;2023-03-01T10:53:34;3.60;1.00
4795;DHT22;2411;47.060;15.064;2023-03-01T10:58:34;3.30;1.00
4795;DHT22;2411;47.060;15.064;2023-03-01T11:03:43;3.30;1.00
4795;DHT22;2411;47.060;15.064;2023-03-01T11:08:44;3.10;1.00
4795;DHT22;2411;47.060;15.064;2023-03-01T11:19:38;3.10;1.00
4795;DHT22;2411;47.060;15.064;2023-03-01T11:22:16;3.10;1.00
4795;DHT22;2411;47.060;15.064;2023-03-01T11:24:49;3.20;1.00
4795;DHT22;2411;47.060;15.064;2023-03-01T11:27:39;3.10;1.00
4795;DHT22;2411;47.060;15.064;2023-03-01T11:30:18;3.00;1.00
4795;DHT22;2411;47.060;15.064;2023-03-01T11:35:37;3.00;1.00
4795;DHT22;2411;47.060;15.064;2023-03-01T11:38:23;3.00;1.00
4795;DHT22;2411;47.060;15.064;2023-03-01T11:41:07;2.90;1.00
4795;DHT22;2411;47.060;15.064;2023-03-01T12:06:18;3.80;1.00
4795;DHT22;2411;47.060;15.064;2023-03-01T12:26:10;4.30;1.00
4795;DHT22;2411;47.060;15.064;2023-03-01T12:29:10;4.30;1.00
4795;DHT22;2411;47.060;15.064;2023-03-01T12:38:59;4.30;1.00
4795;DHT22;2411;47.060;15.064;2023-03-01T12:41:48;4.50;1.00
4795;DHT22;2411;47.060;15.064;2023-03-01T12:49:48;4.50;1.00
4795;DHT22;2411;47.060;15.064;2023-03-01T12:52:24;4.50;1.00
4795;DHT22;2411;47.060;15.064;2023-03-01T12:54:57;4.50;1.00
4795;DHT22;2411;47.060;15.064;2023-03-01T12:57:34;4.60;1.00
4795;DHT22;2411;47.060;15.064;2023-03-01T13:00:22;4.70;1.00
4795;DHT22;2411;47.060;15.064;2023-03-01T13:03:13;4.70;1.00
4795;DHT22;2411;47.060;15.064;2023-03-01T13:08:47;4.60;1.00
4795;DHT22;2411;47.060;15.064;2023-03-01T13:11:21;4.60;1.00
4795;DHT22;2411;47.060;15.064;2023-03-01T13:13:49;4.70;1.00
4795;DHT22;2411;47.060;15.064;2023-03-01T13:19:26;4.80;1.00
4795;DHT22;2411;47.060;15.064;2023-03-01T13:21:56;4.70;1.00
4795;DHT22;2411;47.060;15.064;2023-03-01T13:30:12;4.40;1.00
4795;DHT22;2411;47.060;15.064;2023-03-01T13:32:35;4.40;1.00
4795;DHT22;2411;47.060;15.064;2023-03-01T13:37:42;4.50;1.00
4795;DHT22;2411;47.060;15.064;2023-03-01T13:42:47;4.50;1.00
4795;DHT22;2411;47.060;15.064;2023-03-01T13:48:23;4.60;1.00
4795;DHT22;2411;47.060;15.064;2023-03-01T13:50:54;4.50;1.00
4795;DHT22;2411;47.060;15.064;2023-03-01T13:53:25;4.70;1.00
4795;DHT22;2411;47.060;15.064;2023-03-01T13:56:01;4.70;1.00
4795;DHT22;2411;47.060;15.064;2023-03-01T13:58:32;4.70;1.00
4795;DHT22;2411;47.060;15.064;2023-03-01T14:01:04;4.70;1.00
4795;DHT22;2411;47.060;15.064;2023-03-01T14:03:33;4.50;1.00
4795;DHT22;2411;47.060;15.064;2023-03-01T14:06:12;4.40;1.00
4795;DHT22;2411;47.060;15.064;2023-03-01T14:08:45;4.50;1.00
4795;DHT22;2411;47.060;15.064;2023-03-01T14:19:33;4.20;1.00
4795;DHT22;2411;47.060;15.064;2023-03-01T14:22:17;4.20;1.00
4795;DHT22;2411;47.060;15.064;2023-03-01T14:24:58;4.20;1.00
4795;DHT22;2411;47.060;15.064;2023-03-01T14:27:38;4.20;1.00
4795;DHT22;2411;47.060;15.064;2023-03-01T14:30:19;4.20;1.00
4795;DHT22;2411;47.060;15.064;2023-03-01T14:32:57;4.20;1.00
4795;DHT22;2411;47.060;15.064;2023-03-01T14:35:28;4.20;1.00
4795;DHT22;2411;47.060;15.064;2023-03-01T14:37:57;4.20;1.00
4795;DHT22;2411;47.060;15.064;2023-03-01T14:40:29;4.20;1.00
4795;DHT22;2411;47.060;15.064;2023-03-01T14:42:59;4.30;1.00
4795;DHT22;2411;47.060;15.064;2023-03-01T14:45:29;4.30;1.00
4795;DHT22;2411;47.060;15.064;2023-03-01T14:48:02;4.30;1.00
4795;DHT22;2411;47.060;15.064;2023-03-01T14:50:33;4.40;1.00
4795;DHT22;2411;47.060;15.064;2023-03-01T14:53:04;4.60;1.00
4795;DHT22;2411;47.060;15.064;2023-03-01T14:55:42;4.70;1.00
4795;DHT22;2411;47.060;15.064;2023-03-01T14:58:17;4.80;1.00
4795;DHT22;2411;47.060;15.064;2023-03-01T15:00:53;4.90;1.00
4795;DHT22;2411;47.060;15.064;2023-03-01T15:03:40;5.00;1.00
4795;DHT22;2411;47.060;15.064;2023-03-01T15:06:09;5.00;1.00
4795;DHT22;2411;47.060;15.064;2023-03-01T15:08:44;4.90;1.00
4795;DHT22;2411;47.060;15.064;2023-03-01T15:11:29;5.00;1.00
4795;DHT22;2411;47.060;15.064;2023-03-01T15:13:57;5.00;1.00
4795;DHT22;2411;47.060;15.064;2023-03-01T15:16:33;5.00;1.00
4795;DHT22;2411;47.060;15.064;2023-03-01T15:19:06;5.00;1.00
4795;DHT22;2411;47.060;15.064;2023-03-01T15:21:36;4.90;1.00
4795;DHT22;2411;47.060;15.064;2023-03-01T15:26:42;4.80;1.00
4795;DHT22;2411;47.060;15.064;2023-03-01T15:29:18;4.70;1.00
4795;DHT22;2411;47.060;15.064;2023-03-01T15:32:02;4.60;1.00
4795;DHT22;2411;47.060;15.064;2023-03-01T15:34:37;4.60;1.00
4795;DHT22;2411;47.060;15.064;2023-03-01T15:37:32;4.60;1.00
4795;DHT22;2411;47.060;15.064;2023-03-01T15:39:56;4.60;1.00
4795;DHT22;2411;47.060;15.064;2023-03-01T15:45:31;4.60;1.00
4795;DHT22;2411;47.060;15.064;2023-03-01T15:48:00;4.40;1.00
4795;DHT22;2411;47.060;15.064;2023-03-01T15:53:00;4.40;1.00
4795;DHT22;2411;47.060;15.064;2023-03-01T15:55:29;4.40;1.00
4795;DHT22;2411;47.060;15.064;2023-03-01T15:58:11;4.40;1.00
4795;DHT22;2411;47.060;15.064;2023-03-01T16:00:39;4.30;1.00
4795;DHT22;2411;47.060;15.064;2023-03-01T16:03:24;4.30;1.00
4795;DHT22;2411;47.060;15.064;2023-03-01T16:05:51;4.30;1.00
4795;DHT22;2411;47.060;15.064;2023-03-01T16:08:19;4.20;1.00
4795;DHT22;2411;47.060;15.064;2023-03-01T16:10:46;4.20;1.00
4795;DHT22;2411;47.060;15.064;2023-03-01T16:13:17;4.10;1.00
4795;DHT22;2411;47.060;15.064;2023-03-01T16:15:44;4.00;1.00
4795;DHT22;2411;47.060;15.064;2023-03-01T16:18:12;3.90;1.00
4795;DHT22;2411;47.060;15.064;2023-03-01T16:20:39;3.90;1.00
4795;DHT22;2411;47.060;15.064;2023-03-01T16:23:09;3.90;1.00
4795;DHT22;2411;47.060;15.064;2023-03-01T16:25:37;3.80;1.00
4795;DHT22;2411;47.060;15.064;2023-03-01T16:28:05;3.70;1.00
4795;DHT22;2411;47.060;15.064;2023-03-01T16:30:39;3.60;1.00
4795;DHT22;2411;47.060;15.064;2023-03-01T16:33:07;3.60;1.00
4795;DHT22;2411;47.060;15.064;2023-03-01T16:35:55;3.60;1.00
4795;DHT22;2411;47.060;15.064;2023-03-01T16:38:23;3.70;1.00
4795;DHT22;2411;47.060;15.064;2023-03-01T16:40:51;3.60;1.00
4795;DHT22;2411;47.060;15.064;2023-03-01T16:43:18;3.60;1.00
4795;DHT22;2411;47.060;15.064;2023-03-01T16:45:46;3.60;1.00
4795;DHT22;2411;47.060;15.064;2023-03-01T16:48:14;3.70;1.00
4795;DHT22;2411;47.060;15.064;2023-03-01T16:50:41;3.70;1.00
4795;DHT22;2411;47.060;15.064;2023-03-01T16:53:08;3.60;1.00
4795;DHT22;2411;47.060;15.064;2023-03-01T16:55:36;3.70;1.00
4795;DHT22;2411;47.060;15.064;2023-03-01T16:58:04;3.60;1.00
4795;DHT22;2411;47.060;15.064;2023-03-01T17:00:32;3.50;1.00
4795;DHT22;2411;47.060;15.064;2023-03-01T17:02:59;3.50;1.00
4795;DHT22;2411;47.060;15.064;2023-03-01T17:05:27;3.50;1.00
4795;DHT22;2411;47.060;15.064;2023-03-01T17:07:54;3.40;1.00
4795;DHT22;2411;47.060;15.064;2023-03-01T17:10:24;3.30;1.00
4795;DHT22;2411;47.060;15.064;2023-03-01T17:12:51;3.40;1.00
4795;DHT22;2411;47.060;15.064;2023-03-01T17:15:18;3.40;1.00
4795;DHT22;2411;47.060;15.064;2023-03-01T17:17:45;3.50;1.00
4795;DHT22;2411;47.060;15.064;2023-03-01T17:20:35;3.50;1.00
4795;DHT22;2411;47.060;15.064;2023-03-01T17:23:03;3.60;1.00
4795;DHT22;2411;47.060;15.064;2023-03-01T17:25:30;3.60;1.00
4795;DHT22;2411;47.060;15.064;2023-03-01T17:27:58;3.50;1.00
4795;DHT22;2411;47.060;15.064;2023-03-01T17:30:27;3.50;1.00
4795;DHT22;2411;47.060;15.064;2023-03-01T17:32:54;3.40;1.00
4795;DHT22;2411;47.060;15.064;2023-03-01T17:35:22;3.40;1.00
4795;DHT22;2411;47.060;15.064;2023-03-01T17:37:49;3.40;1.00
4795;DHT22;2411;47.060;15.064;2023-03-01T17:40:16;3.30;1.00
4795;DHT22;2411;47.060;15.064;2023-03-01T17:42:44;3.30;1.00
4795;DHT22;2411;47.060;15.064;2023-03-01T17:45:12;3.30;1.00
4795;DHT22;2411;47.060;15.064;2023-03-01T17:47:39;3.20;1.00
4795;DHT22;2411;47.060;15.064;2023-03-01T17:50:08;3.20;1.00
4795;DHT22;2411;47.060;15.064;2023-03-01T17:52:35;3.20;1.00
4795;DHT22;2411;47.060;15.064;2023-03-01T17:55:03;3.20;1.00
4795;DHT22;2411;47.060;15.064;2023-03-01T17:57:31;3.20;1.00
4795;DHT22;2411;47.060;15.064;2023-03-01T17:59:58;3.20;1.00
4795;DHT22;2411;47.060;15.064;2023-03-01T18:02:25;3.20;1.00
4795;DHT22;2411;47.060;15.064;2023-03-01T18:04:56;3.10;1.00
4795;DHT22;2411;47.060;15.064;2023-03-01T18:07:26;3.10;1.00
4795;DHT22;2411;47.060;15.064;2023-03-01T18:09:54;3.20;1.00
4795;DHT22;2411;47.060;15.064;2023-03-01T18:12:21;3.20;1.00
4795;DHT22;2411;47.060;15.064;2023-03-01T18:14:49;3.10;1.00
4795;DHT22;2411;47.060;15.064;2023-03-01T18:17:20;3.00;1.00
4795;DHT22;2411;47.060;15.064;2023-03-01T18:19:50;2.90;1.00
4795;DHT22;2411;47.060;15.064;2023-03-01T18:22:17;2.90;1.00
4795;DHT22;2411;47.060;15.064;2023-03-01T18:24:44;2.90;1.00
4795;DHT22;2411;47.060;15.064;2023-03-01T18:27:12;2.90;1.00
4795;DHT22;2411;47.060;15.064;2023-03-01T18:29:39;3.00;1.00
4795;DHT22;2411;47.060;15.064;2023-03-01T18:32:06;3.00;1.00
4795;DHT22;2411;47.060;15.064;2023-03-01T18:34:34;3.00;1.00
4795;DHT22;2411;47.060;15.064;2023-03-01T18:37:01;3.00;1.00
4795;DHT22;2411;47.060;15.064;2023-03-01T18:39:37;3.00;1.00
4795;DHT22;2411;47.060;15.064;2023-03-01T18:42:04;3.00;1.00
4795;DHT22;2411;47.060;15.064;2023-03-01T18:44:33;3.10;1.00
4795;DHT22;2411;47.060;15.064;2023-03-01T18:47:01;3.10;1.00
4795;DHT22;2411;47.060;15.064;2023-03-01T18:49:28;3.00;1.00
4795;DHT22;2411;47.060;15.064;2023-03-01T18:51:55;3.00;1.00
4795;DHT22;2411;47.060;15.064;2023-03-01T18:54:23;3.10;1.00
4795;DHT22;2411;47.060;15.064;2023-03-01T18:56:50;3.10;1.00
4795;DHT22;2411;47.060;15.064;2023-03-01T18:59:17;3.00;1.00